Time;durP1;ratioP1;P1;durP2;ratioP2;P2;SDS_P1;SDS_P2;PMS_P1;PMS_P2;Temp;Humidity;BMP_temperature;BMP_pressure;BME280_temperature;BME280_humidity;BME280_pressure;Samples;Min_cycle;Max_cycle;Signal;HPM_P1;HPM_P2
2023/08/18 00:00:02;;;;;;;65.77;37.17;;;21.50;99.90;;;;;;7298909;19;20179;-75
2023/08/18 00:02:35;;;;;;;69.37;36.97;;;21.50;99.90;;;;;;7279790;19;21534;-76
2023/08/18 00:05:02;;;;;;;68.43;37.80;;;21.50;99.90;;;;;;7300962;19;20203;-76
2023/08/18 00:07:28;;;;;;;58.47;36.43;;;21.50;99.90;;;;;;7279451;19;20194;-75
2023/08/18 00:09:53;;;;;;;62.43;36.20;;;21.50;99.90;;;;;;7279669;19;20187;-76
2023/08/18 00:12:19;;;;;;;64.00;35.87;;;21.60;99.90;;;;;;7277697;19;20659;-76
2023/08/18 00:14:45;;;;;;;62.63;35.03;;;21.60;99.90;;;;;;7280094;19;20199;-76
2023/08/18 00:17:10;;;;;;;61.97;33.73;;;21.50;99.90;;;;;;7279215;19;20191;-75
2023/08/18 00:19:36;;;;;;;57.57;33.63;;;21.40;99.90;;;;;;7279239;19;20202;-76
2023/08/18 00:22:02;;;;;;;53.13;32.07;;;21.20;99.90;;;;;;7293025;19;20311;-76
2023/08/18 00:24:28;;;;;;;62.30;33.90;;;21.10;99.90;;;;;;7295126;19;20281;-76
2023/08/18 00:26:53;;;;;;;60.07;33.57;;;21.20;99.90;;;;;;7277153;19;20305;-75
2023/08/18 00:29:19;;;;;;;63.03;35.63;;;21.30;99.90;;;;;;7279632;19;20189;-76
2023/08/18 00:31:45;;;;;;;59.87;33.03;;;21.30;99.90;;;;;;7280594;19;20186;-76
2023/08/18 00:34:11;;;;;;;59.53;34.10;;;21.40;99.90;;;;;;7278784;19;20198;-76
2023/08/18 00:36:37;;;;;;;59.77;34.93;;;21.40;99.90;;;;;;7278884;19;20192;-76
2023/08/18 00:39:03;;;;;;;55.50;33.13;;;21.50;99.90;;;;;;7286246;19;20268;-75
2023/08/18 00:41:29;;;;;;;58.83;32.80;;;21.40;99.90;;;;;;7300875;19;20208;-75
2023/08/18 00:43:55;;;;;;;61.77;35.03;;;21.30;99.90;;;;;;7278669;19;20188;-76
2023/08/18 00:46:21;;;;;;;59.50;34.73;;;21.40;99.90;;;;;;7279156;19;20205;-75
2023/08/18 00:48:48;;;;;;;57.97;35.23;;;21.40;99.90;;;;;;7277932;19;20192;-75
2023/08/18 00:51:16;;;;;;;59.83;33.33;;;21.30;99.90;;;;;;7278806;19;20192;-75
2023/08/18 00:53:43;;;;;;;55.90;33.03;;;21.20;99.90;;;;;;7278800;19;20194;-76
2023/08/18 00:56:10;;;;;;;63.23;33.63;;;21.20;99.90;;;;;;7278620;19;20209;-76
2023/08/18 00:58:36;;;;;;;62.87;33.17;;;21.10;99.90;;;;;;7278598;19;20209;-75
2023/08/18 01:01:02;;;;;;;57.83;32.93;;;21.10;99.90;;;;;;7291333;19;20183;-76
2023/08/18 01:03:29;;;;;;;58.07;33.43;;;21.20;99.90;;;;;;7297792;19;20196;-76
2023/08/18 01:05:55;;;;;;;61.57;34.07;;;21.20;99.90;;;;;;7276425;19;20206;-75
2023/08/18 01:08:21;;;;;;;55.03;31.97;;;21.10;99.90;;;;;;7279012;19;20203;-76
2023/08/18 01:10:55;;;;;;;59.40;32.47;;;21.00;99.90;;;;;;7277001;19;20190;-75
2023/08/18 01:14:02;;;;;;;53.13;32.43;;;21.10;99.90;;;;;;7276419;19;20201;-75
2023/08/18 01:16:29;;;;;;;60.03;32.53;;;21.10;99.90;;;;;;7175856;19;2004974;-75
2023/08/18 01:18:55;;;;;;;52.60;31.27;;;21.00;99.90;;;;;;7281051;19;20201;-75
2023/08/18 01:21:23;;;;;;;57.80;33.60;;;20.90;99.90;;;;;;7283592;19;20250;-75
2023/08/18 01:23:49;;;;;;;61.93;34.67;;;20.90;99.90;;;;;;7283704;19;20662;-75
2023/08/18 01:26:16;;;;;;;56.50;33.40;;;21.00;99.90;;;;;;7284463;19;20210;-75
2023/08/18 01:28:43;;;;;;;59.60;33.60;;;21.10;99.90;;;;;;7284562;19;20195;-75
2023/08/18 01:31:21;;;;;;;58.60;32.73;;;21.10;99.90;;;;;;7284515;19;20203;-75
2023/08/18 01:33:53;;;;;;;57.60;33.07;;;21.10;99.90;;;;;;7283826;19;20187;-75
2023/08/18 01:36:21;;;;;;;57.10;33.10;;;21.10;99.90;;;;;;7285357;19;20253;-75
2023/08/18 01:38:50;;;;;;;57.93;33.87;;;21.10;99.90;;;;;;7284186;19;20186;-76
2023/08/18 01:41:21;;;;;;;60.13;33.60;;;21.10;99.90;;;;;;7284976;19;20273;-76
2023/08/18 01:43:48;;;;;;;58.40;34.27;;;21.20;99.90;;;;;;7283691;19;20182;-75
2023/08/18 01:46:13;;;;;;;56.87;31.57;;;21.30;99.90;;;;;;7284970;19;20187;-76
2023/08/18 01:48:39;;;;;;;56.37;32.30;;;21.30;99.90;;;;;;7283884;19;20747;-76
2023/08/18 01:51:05;;;;;;;56.43;32.77;;;21.30;99.90;;;;;;7283475;19;20727;-76
2023/08/18 01:53:31;;;;;;;55.33;33.30;;;21.30;99.90;;;;;;7305957;19;20225;-76
2023/08/18 01:56:02;;;;;;;54.73;31.63;;;21.40;99.90;;;;;;7284019;19;20231;-76
2023/08/18 01:58:28;;;;;;;56.60;33.43;;;21.40;99.90;;;;;;7282184;19;20184;-76
2023/08/18 02:00:55;;;;;;;58.77;33.47;;;21.40;99.90;;;;;;7283030;19;20191;-76
2023/08/18 02:03:22;;;;;;;56.23;33.30;;;21.40;99.90;;;;;;7284143;19;20202;-76
2023/08/18 02:05:47;;;;;;;57.60;34.10;;;21.50;99.90;;;;;;7283158;19;20206;-75
2023/08/18 02:08:13;;;;;;;53.50;31.07;;;21.50;99.90;;;;;;7284949;19;20579;-76
2023/08/18 02:10:39;;;;;;;57.07;33.93;;;21.40;99.90;;;;;;7282863;19;20187;-76
2023/08/18 02:13:05;;;;;;;55.67;32.53;;;21.30;99.90;;;;;;7280959;19;20246;-76
2023/08/18 02:15:31;;;;;;;59.97;34.27;;;21.20;99.90;;;;;;7305835;19;20187;-76
2023/08/18 02:17:57;;;;;;;52.37;33.37;;;21.30;99.90;;;;;;7284175;19;20183;-76
2023/08/18 02:20:23;;;;;;;59.17;34.83;;;21.40;99.90;;;;;;7281890;19;20294;-76
2023/08/18 02:22:49;;;;;;;54.00;33.87;;;21.40;99.90;;;;;;7284165;19;20195;-76
2023/08/18 02:25:15;;;;;;;60.30;35.27;;;21.40;99.90;;;;;;7282170;19;20203;-76
2023/08/18 02:27:41;;;;;;;58.20;35.00;;;21.30;99.90;;;;;;7281954;19;20303;-76
2023/08/18 02:30:07;;;;;;;53.93;33.87;;;21.20;99.90;;;;;;7279934;19;20975;-75
2023/08/18 02:32:33;;;;;;;62.30;36.00;;;21.20;99.90;;;;;;7288858;19;20197;-76
2023/08/18 02:34:59;;;;;;;57.37;35.00;;;21.20;99.90;;;;;;7304529;19;20195;-74
2023/08/18 02:37:25;;;;;;;55.03;33.63;;;21.10;99.90;;;;;;7281677;19;20267;-76
2023/08/18 02:39:50;;;;;;;62.23;35.07;;;21.10;99.90;;;;;;7282674;19;20199;-76
2023/08/18 02:42:16;;;;;;;63.43;36.43;;;21.10;99.90;;;;;;7281684;19;20219;-76
2023/08/18 02:44:42;;;;;;;58.10;35.40;;;21.20;99.90;;;;;;7282407;19;20195;-76
2023/08/18 02:47:09;;;;;;;60.70;35.47;;;21.20;99.90;;;;;;7281386;19;20223;-76
2023/08/18 02:49:35;;;;;;;60.23;36.47;;;21.30;99.90;;;;;;7281453;19;20219;-76
2023/08/18 02:52:01;;;;;;;62.17;36.00;;;21.30;99.90;;;;;;7304439;19;20190;-76
2023/08/18 02:54:27;;;;;;;61.70;37.53;;;21.30;99.90;;;;;;7281622;19;20195;-76
2023/08/18 02:56:54;;;;;;;61.43;36.17;;;21.20;99.90;;;;;;7280662;19;20237;-76
2023/08/18 02:59:20;;;;;;;63.03;36.23;;;21.20;99.90;;;;;;7282691;19;20201;-76
2023/08/18 03:01:45;;;;;;;69.30;38.70;;;21.20;99.90;;;;;;7281979;19;20206;-75
2023/08/18 03:04:14;;;;;;;63.83;39.57;;;21.20;99.90;;;;;;7281622;19;20189;-75
2023/08/18 03:06:40;;;;;;;66.20;37.90;;;21.30;99.90;;;;;;7281507;19;20225;-76
2023/08/18 03:09:06;;;;;;;69.60;40.77;;;21.30;99.90;;;;;;7280866;19;20195;-75
2023/08/18 03:11:32;;;;;;;71.00;40.50;;;21.20;99.90;;;;;;7299260;19;20616;-75
2023/08/18 03:13:58;;;;;;;61.13;38.60;;;21.20;99.90;;;;;;7291851;19;20201;-75
2023/08/18 03:16:23;;;;;;;69.13;38.73;;;21.10;99.90;;;;;;7281689;19;20207;-75
2023/08/18 03:18:49;;;;;;;69.80;39.70;;;21.10;99.90;;;;;;7281008;19;20227;-76
2023/08/18 03:21:15;;;;;;;65.20;39.87;;;21.10;99.90;;;;;;7280491;19;20199;-75
2023/08/18 03:23:41;;;;;;;64.67;39.10;;;21.20;99.90;;;;;;7279935;19;20186;-74
2023/08/18 03:26:07;;;;;;;72.53;40.77;;;21.20;99.90;;;;;;7279072;19;20187;-74
2023/08/18 03:28:36;;;;;;;69.90;40.60;;;21.20;99.90;;;;;;7280255;19;20180;-75
2023/08/18 03:31:06;;;;;;;73.57;40.00;;;21.10;99.90;;;;;;7302473;19;20215;-75
2023/08/18 03:33:34;;;;;;;70.50;39.87;;;21.10;99.90;;;;;;7271263;19;20215;-75
2023/08/18 03:36:03;;;;;;;68.70;38.23;;;21.20;99.90;;;;;;7303330;19;20238;-75
2023/08/18 03:38:29;;;;;;;73.37;41.40;;;21.10;99.90;;;;;;7279074;19;20181;-76
2023/08/18 03:41:03;;;;;;;72.20;41.70;;;21.10;99.90;;;;;;7279039;19;20183;-75
2023/08/18 03:43:29;;;;;;;69.17;40.73;;;21.00;99.90;;;;;;7281220;19;20607;-75
2023/08/18 03:45:59;;;;;;;70.17;41.23;;;20.90;99.90;;;;;;7280253;19;20641;-75
2023/08/18 03:48:25;;;;;;;76.30;42.20;;;20.90;99.90;;;;;;7280066;19;20225;-75
2023/08/18 03:50:51;;;;;;;70.93;39.93;;;20.90;99.90;;;;;;7279982;19;20191;-75
2023/08/18 03:53:16;;;;;;;71.33;41.10;;;20.90;99.90;;;;;;7279065;19;20570;-75
2023/08/18 03:55:48;;;;;;;76.53;41.97;;;20.90;99.90;;;;;;7278641;19;20196;-76
2023/08/18 03:58:14;;;;;;;73.70;43.00;;;20.90;99.90;;;;;;7279718;19;20190;-75
2023/08/18 04:00:40;;;;;;;72.73;41.70;;;21.00;99.90;;;;;;7279276;19;20212;-75
2023/08/18 04:03:06;;;;;;;76.93;42.63;;;20.90;99.90;;;;;;7279812;19;20967;-75
2023/08/18 04:05:31;;;;;;;78.70;43.13;;;20.90;99.90;;;;;;7299997;19;20193;-76
2023/08/18 04:07:57;;;;;;;81.83;43.43;;;20.90;99.90;;;;;;7278940;19;20186;-75
2023/08/18 04:10:24;;;;;;;77.73;42.77;;;21.00;99.90;;;;;;7280148;19;20282;-76
2023/08/18 04:12:49;;;;;;;83.90;45.23;;;20.90;99.90;;;;;;7278351;19;20262;-76
2023/08/18 04:15:15;;;;;;;81.13;45.47;;;20.90;99.90;;;;;;7277567;19;20533;-76
2023/08/18 04:17:41;;;;;;;78.33;43.50;;;20.90;99.90;;;;;;7279215;19;20216;-76
2023/08/18 04:20:08;;;;;;;81.37;44.43;;;20.80;99.90;;;;;;7279051;19;20197;-75
2023/08/18 04:22:34;;;;;;;83.40;45.17;;;20.80;99.90;;;;;;7278204;19;20237;-75
2023/08/18 04:25:00;;;;;;;77.93;45.13;;;20.70;99.90;;;;;;7299137;19;20210;-75
2023/08/18 04:27:26;;;;;;;82.70;45.60;;;20.70;99.90;;;;;;7278671;19;20196;-75
2023/08/18 04:29:52;;;;;;;81.97;46.00;;;20.70;99.90;;;;;;7277102;19;20209;-75
2023/08/18 04:32:18;;;;;;;86.37;46.40;;;20.70;99.90;;;;;;7277845;19;20583;-75
2023/08/18 04:34:45;;;;;;;84.03;45.63;;;20.70;99.90;;;;;;7277483;19;20204;-75
2023/08/18 04:37:13;;;;;;;85.97;44.53;;;20.70;99.90;;;;;;7278889;19;20978;-75
2023/08/18 04:39:39;;;;;;;84.20;45.20;;;20.80;99.90;;;;;;7277157;19;20226;-75
2023/08/18 04:42:05;;;;;;;81.80;44.67;;;20.80;99.90;;;;;;7279035;19;20185;-74
2023/08/18 04:44:33;;;;;;;78.40;45.03;;;20.80;99.90;;;;;;7285730;19;20194;-75
2023/08/18 04:47:03;;;;;;;83.70;45.77;;;20.80;99.90;;;;;;7301263;19;20188;-74
2023/08/18 04:49:28;;;;;;;90.17;46.17;;;20.80;99.90;;;;;;7278321;19;20680;-75
2023/08/18 04:51:55;;;;;;;84.27;45.37;;;20.70;99.90;;;;;;7278868;19;20193;-75
2023/08/18 04:54:21;;;;;;;84.77;46.03;;;20.70;99.90;;;;;;7283862;19;20193;-75
2023/08/18 04:56:46;;;;;;;87.83;46.57;;;20.70;99.90;;;;;;7285743;19;20199;-75
2023/08/18 04:59:14;;;;;;;90.17;45.83;;;20.70;99.90;;;;;;7285361;19;20227;-75
2023/08/18 05:01:41;;;;;;;91.43;46.73;;;20.60;99.90;;;;;;7286134;19;20199;-75
2023/08/18 05:04:07;;;;;;;89.10;46.43;;;20.50;99.90;;;;;;7285681;19;20555;-75
2023/08/18 05:06:33;;;;;;;91.67;45.63;;;20.40;99.90;;;;;;7295608;19;20659;-75
2023/08/18 05:08:59;;;;;;;88.93;45.23;;;20.40;99.90;;;;;;7304702;19;20532;-75
2023/08/18 05:11:25;;;;;;;89.20;43.57;;;20.30;99.90;;;;;;7284979;19;20188;-74
2023/08/18 05:13:50;;;;;;;88.17;44.37;;;20.20;99.90;;;;;;7284988;19;20192;-75
2023/08/18 05:16:17;;;;;;;90.43;43.97;;;20.10;99.90;;;;;;7285575;19;20203;-75
2023/08/18 05:18:43;;;;;;;94.40;45.53;;;20.00;99.90;;;;;;7282228;19;20563;-75
2023/08/18 05:21:09;;;;;;;96.33;44.87;;;20.00;99.90;;;;;;7283947;19;20187;-75
2023/08/18 05:23:34;;;;;;;95.93;45.80;;;20.00;99.90;;;;;;7283263;19;20212;-74
2023/08/18 05:26:01;;;;;;;98.93;45.23;;;20.00;99.90;;;;;;7306813;19;20283;-76
2023/08/18 05:28:28;;;;;;;104.57;46.00;;;19.80;99.90;;;;;;7284490;19;20864;-75
2023/08/18 05:30:54;;;;;;;106.83;47.73;;;19.90;99.90;;;;;;7284392;19;20705;-76
2023/08/18 05:33:20;;;;;;;96.10;45.03;;;19.80;99.90;;;;;;7283940;19;20189;-75
2023/08/18 05:35:47;;;;;;;105.37;46.23;;;19.90;99.90;;;;;;7285721;19;20212;-77
2023/08/18 05:38:13;;;;;;;104.33;47.73;;;19.90;99.90;;;;;;7284464;19;20258;-76
2023/08/18 05:40:47;;;;;;;106.83;47.63;;;19.90;99.90;;;;;;7284175;19;20373;-75
2023/08/18 05:43:14;;;;;;;106.43;46.77;;;20.00;99.90;;;;;;7284525;19;20192;-75
2023/08/18 05:45:43;;;;;;;112.40;47.90;;;20.00;99.90;;;;;;7285424;19;20188;-76
2023/08/18 05:48:08;;;;;;;111.10;48.90;;;20.00;99.90;;;;;;7283123;19;20652;-76
2023/08/18 05:50:34;;;;;;;112.27;47.83;;;20.10;99.90;;;;;;7284426;19;20200;-75
2023/08/18 05:53:04;;;;;;;104.57;46.87;;;20.10;99.90;;;;;;7306512;19;20194;-76
2023/08/18 05:55:30;;;;;;;113.23;47.67;;;20.10;99.90;;;;;;7284261;19;20192;-76
2023/08/18 05:57:59;;;;;;;108.73;47.37;;;20.10;99.90;;;;;;7282734;19;20195;-76
2023/08/18 06:00:25;;;;;;;103.30;47.30;;;20.20;99.90;;;;;;7283527;19;20194;-74
2023/08/18 06:02:52;;;;;;;105.63;46.47;;;20.20;99.90;;;;;;7283061;19;20203;-76
2023/08/18 06:05:18;;;;;;;110.37;48.20;;;20.20;99.90;;;;;;7284197;19;20542;-76
2023/08/18 06:07:43;;;;;;;106.73;47.07;;;20.20;99.90;;;;;;7283336;19;20191;-74
2023/08/18 06:10:11;;;;;;;110.13;48.67;;;20.30;99.90;;;;;;7283546;19;20725;-76
2023/08/18 06:12:40;;;;;;;118.70;48.17;;;20.30;99.90;;;;;;7283907;19;20243;-76
2023/08/18 06:15:08;;;;;;;114.60;47.20;;;20.30;99.90;;;;;;7281561;19;20219;-75
2023/08/18 06:17:34;;;;;;;106.47;46.47;;;20.40;99.90;;;;;;7291805;19;20613;-75
2023/08/18 06:20:00;;;;;;;115.13;48.17;;;20.40;99.90;;;;;;7304819;19;20213;-76
2023/08/18 06:22:26;;;;;;;104.70;45.10;;;20.40;99.90;;;;;;7283972;19;20605;-76
2023/08/18 06:24:52;;;;;;;115.37;48.77;;;20.40;99.90;;;;;;7283263;19;20720;-75
2023/08/18 06:27:18;;;;;;;114.53;48.33;;;20.40;99.90;;;;;;7281879;19;20192;-76
2023/08/18 06:29:44;;;;;;;114.93;47.57;;;20.40;99.90;;;;;;7281719;19;20207;-75
2023/08/18 06:32:09;;;;;;;116.30;47.07;;;20.30;99.90;;;;;;7283715;19;22037;-76
2023/08/18 06:34:35;;;;;;;116.80;48.30;;;20.30;99.90;;;;;;7282392;19;20184;-75
2023/08/18 06:37:02;;;;;;;110.53;45.90;;;20.30;99.90;;;;;;7305158;19;20256;-76
2023/08/18 06:39:28;;;;;;;103.67;46.70;;;20.40;99.90;;;;;;7282546;19;20300;-76
2023/08/18 06:41:54;;;;;;;108.77;46.27;;;20.30;99.90;;;;;;7281815;19;20182;-75
2023/08/18 06:44:20;;;;;;;103.70;43.83;;;20.30;99.90;;;;;;7282765;19;21031;-75
2023/08/18 06:46:47;;;;;;;99.27;44.53;;;20.40;99.90;;;;;;7280321;19;20191;-75
2023/08/18 06:49:13;;;;;;;102.87;45.93;;;20.30;99.90;;;;;;7278883;19;20188;-75
2023/08/18 06:51:39;;;;;;;104.73;45.37;;;20.40;99.90;;;;;;7282685;19;20294;-75
2023/08/18 06:54:05;;;;;;;102.07;44.83;;;20.30;99.90;;;;;;7280834;19;20179;-75
2023/08/18 06:56:31;;;;;;;99.30;45.17;;;20.40;99.90;;;;;;7303467;19;20205;-75
2023/08/18 06:58:58;;;;;;;102.10;45.23;;;20.30;99.90;;;;;;7281130;19;20206;-75
2023/08/18 07:01:25;;;;;;;103.53;45.23;;;20.30;99.90;;;;;;7282173;19;20267;-75
2023/08/18 07:03:51;;;;;;;103.93;44.87;;;20.40;99.90;;;;;;7281496;19;20734;-76
2023/08/18 07:06:19;;;;;;;105.40;46.33;;;20.40;99.90;;;;;;7281281;19;20210;-76
2023/08/18 07:08:44;;;;;;;110.40;45.83;;;20.40;99.90;;;;;;7282014;19;20189;-76
2023/08/18 07:11:10;;;;;;;99.80;45.23;;;20.40;99.90;;;;;;7281247;19;20181;-76
2023/08/18 07:13:36;;;;;;;106.23;46.43;;;20.50;99.90;;;;;;7281550;19;20252;-77
2023/08/18 07:16:02;;;;;;;107.53;45.93;;;20.50;99.90;;;;;;7301302;19;20204;-76
2023/08/18 07:18:28;;;;;;;102.03;46.03;;;20.70;99.90;;;;;;7283259;19;20182;-76
2023/08/18 07:20:53;;;;;;;96.40;44.03;;;20.80;99.90;;;;;;7281886;19;20689;-76
2023/08/18 07:23:19;;;;;;;104.90;46.03;;;20.90;99.90;;;;;;7279862;19;20182;-77
2023/08/18 07:25:46;;;;;;;103.93;47.57;;;20.90;99.90;;;;;;7281298;19;20179;-76
2023/08/18 07:28:11;;;;;;;99.90;45.77;;;21.00;99.90;;;;;;7280619;19;20211;-77
2023/08/18 07:30:37;;;;;;;103.00;47.37;;;20.90;99.90;;;;;;7282126;19;20194;-76
2023/08/18 07:33:03;;;;;;;100.37;45.70;;;20.90;99.90;;;;;;7303625;19;20190;-76
2023/08/18 07:35:28;;;;;;;99.70;44.87;;;20.90;99.90;;;;;;7282379;19;20194;-76
2023/08/18 07:37:54;;;;;;;100.97;46.17;;;21.00;99.90;;;;;;7281452;19;20625;-76
2023/08/18 07:40:20;;;;;;;95.33;45.67;;;21.00;99.90;;;;;;7281446;19;20187;-76
2023/08/18 07:42:46;;;;;;;104.67;46.63;;;21.00;99.90;;;;;;7278872;19;20191;-76
2023/08/18 07:45:12;;;;;;;102.57;47.33;;;21.00;99.90;;;;;;7281434;19;20191;-76
2023/08/18 07:47:38;;;;;;;97.00;46.87;;;20.90;99.90;;;;;;7281828;19;20250;-76
2023/08/18 07:50:09;;;;;;;109.20;48.83;;;21.00;99.90;;;;;;7289124;19;20185;-75
2023/08/18 07:52:35;;;;;;;110.10;48.97;;;20.90;99.90;;;;;;7280782;19;20750;-76
2023/08/18 07:55:05;;;;;;;112.63;49.90;;;21.00;99.90;;;;;;7302567;19;20185;-76
2023/08/18 07:57:31;;;;;;;114.53;46.77;;;20.90;99.90;;;;;;7279456;19;20196;-76
2023/08/18 07:59:57;;;;;;;99.20;46.07;;;20.90;99.90;;;;;;7280202;19;20706;-76
2023/08/18 08:02:23;;;;;;;101.63;47.17;;;20.90;99.90;;;;;;7280770;19;20213;-76
2023/08/18 08:04:50;;;;;;;97.30;46.33;;;21.10;99.90;;;;;;7280707;19;20194;-76
2023/08/18 08:07:16;;;;;;;111.43;49.27;;;21.20;99.90;;;;;;7278934;19;20931;-76
2023/08/18 08:09:42;;;;;;;111.47;48.83;;;21.20;99.90;;;;;;7279877;19;20522;-76
2023/08/18 08:12:08;;;;;;;112.57;49.00;;;21.30;99.90;;;;;;7280243;19;20223;-76
2023/08/18 08:14:34;;;;;;;106.80;50.53;;;21.30;99.90;;;;;;7292977;19;20186;-75
2023/08/18 08:16:59;;;;;;;109.80;48.87;;;21.30;99.90;;;;;;7297108;19;20182;-76
2023/08/18 08:19:25;;;;;;;107.33;48.60;;;21.40;99.90;;;;;;7279715;19;20781;-76
2023/08/18 08:21:52;;;;;;;101.97;46.63;;;21.40;99.90;;;;;;7278514;19;20212;-76
2023/08/18 08:24:18;;;;;;;80.63;39.23;;;21.50;99.90;;;;;;7279512;19;20249;-76
2023/08/18 08:26:44;;;;;;;79.20;39.37;;;21.50;99.90;;;;;;7279044;19;20606;-76
2023/08/18 08:29:10;;;;;;;76.23;37.87;;;21.30;99.90;;;;;;7278995;19;20190;-76
2023/08/18 08:31:36;;;;;;;77.83;39.63;;;21.20;99.90;;;;;;7278969;19;20633;-75
2023/08/18 08:34:02;;;;;;;80.63;40.00;;;21.30;99.90;;;;;;7302065;19;20186;-76
2023/08/18 08:36:32;;;;;;;80.73;41.77;;;21.50;99.90;;;;;;7279445;19;20197;-76
2023/08/18 08:39:00;;;;;;;82.97;41.13;;;21.70;99.90;;;;;;7278741;19;20200;-76
2023/08/18 08:41:26;;;;;;;84.03;41.67;;;21.80;99.90;;;;;;7277740;19;20188;-76
2023/08/18 08:43:52;;;;;;;89.77;42.87;;;21.90;99.90;;;;;;7278127;19;20200;-75
2023/08/18 08:46:19;;;;;;;91.50;43.43;;;22.00;99.90;;;;;;7281314;19;20187;-78
2023/08/18 08:48:47;;;;;;;84.97;43.70;;;22.10;99.90;;;;;;7282268;19;20271;-86
2023/08/18 08:51:14;;;;;;;90.43;43.03;;;22.20;99.90;;;;;;7281428;19;20192;-77
2023/08/18 08:53:54;;;;;;;90.77;44.13;;;22.30;99.90;;;;;;7280646;19;20196;-76
2023/08/18 08:56:24;;;;;;;94.07;44.27;;;22.30;99.90;;;;;;7279479;19;20655;-77
2023/08/18 08:58:50;;;;;;;94.23;45.13;;;22.30;99.90;;;;;;7278675;19;20190;-77
2023/08/18 09:01:16;;;;;;;95.93;45.43;;;22.20;99.90;;;;;;7278803;19;20183;-76
2023/08/18 09:03:43;;;;;;;86.00;41.17;;;22.30;99.90;;;;;;7277813;19;20199;-76
2023/08/18 09:06:11;;;;;;;80.73;40.33;;;22.30;99.90;;;;;;7277499;19;20192;-76
2023/08/18 09:08:37;;;;;;;79.27;40.50;;;22.30;99.90;;;;;;7279189;19;20940;-76
2023/08/18 09:11:02;;;;;;;73.87;39.67;;;22.10;99.90;;;;;;7301458;19;20288;-76
2023/08/18 09:13:28;;;;;;;79.43;39.70;;;22.30;99.90;;;;;;7279526;19;20184;-77
2023/08/18 09:15:56;;;;;;;80.70;41.27;;;22.50;99.90;;;;;;7279019;19;20174;-77
2023/08/18 09:18:21;;;;;;;79.50;39.57;;;22.60;99.90;;;;;;7277442;19;20184;-77
2023/08/18 09:20:47;;;;;;;72.80;37.33;;;22.60;99.90;;;;;;7278349;19;20982;-77
2023/08/18 09:23:13;;;;;;;82.23;39.00;;;22.80;99.90;;;;;;7279416;19;20185;-76
2023/08/18 09:25:39;;;;;;;76.47;38.77;;;22.80;99.90;;;;;;7278154;19;20200;-77
2023/08/18 09:28:05;;;;;;;82.40;39.97;;;22.90;99.90;;;;;;7285217;19;20501;-77
2023/08/18 09:30:31;;;;;;;77.00;39.97;;;23.00;99.90;;;;;;7300819;19;20522;-77
2023/08/18 09:33:00;;;;;;;86.37;42.50;;;23.00;99.90;;;;;;7277824;19;20189;-76
2023/08/18 09:35:31;;;;;;;88.53;41.87;;;23.00;99.90;;;;;;7277584;19;20185;-77
2023/08/18 09:37:57;;;;;;;79.97;40.80;;;23.10;99.90;;;;;;7277671;19;20180;-76
2023/08/18 09:40:24;;;;;;;76.37;38.70;;;23.20;99.90;;;;;;7284465;19;21596;-76
2023/08/18 09:42:50;;;;;;;87.70;40.50;;;23.10;99.90;;;;;;7283707;19;20612;-76
2023/08/18 09:45:16;;;;;;;74.40;36.13;;;23.10;99.90;;;;;;7285250;19;20196;-77
2023/08/18 09:47:45;;;;;;;77.47;38.70;;;23.10;99.90;;;;;;7284264;19;20196;-76
2023/08/18 09:50:13;;;;;;;71.20;37.93;;;23.10;99.90;;;;;;7284634;19;20279;-76
2023/08/18 09:52:41;;;;;;;68.10;35.47;;;23.10;99.90;;;;;;7284396;19;20184;-76
2023/08/18 09:55:16;;;;;;;71.37;36.13;;;23.20;99.90;;;;;;7284445;19;20195;-76
2023/08/18 09:57:47;;;;;;;64.93;34.67;;;23.30;99.90;;;;;;7283674;19;20180;-76
2023/08/18 10:00:14;;;;;;;62.40;35.00;;;23.60;99.90;;;;;;7283258;19;20244;-76
2023/08/18 10:02:44;;;;;;;66.70;34.33;;;23.80;99.90;;;;;;7285656;19;20682;-77
2023/08/18 10:05:12;;;;;;;72.97;37.20;;;24.00;99.90;;;;;;7285180;19;20223;-77
2023/08/18 10:07:39;;;;;;;74.17;36.37;;;24.20;99.90;;;;;;7284568;19;20237;-78
2023/08/18 10:10:06;;;;;;;70.00;36.77;;;24.40;99.90;;;;;;7291986;19;20624;-77
2023/08/18 10:12:32;;;;;;;77.07;37.88;;;24.90;99.90;;;;;;7306736;19;20189;-77
2023/08/18 10:14:58;;;;;;;70.93;37.60;;;25.20;99.90;;;;;;7284287;19;20192;-77
2023/08/18 10:17:24;;;;;;;76.47;39.30;;;25.30;99.90;;;;;;7286107;19;20206;-77
2023/08/18 10:19:55;;;;;;;73.23;38.73;;;25.30;99.90;;;;;;7285406;19;20196;-77
2023/08/18 10:22:24;;;;;;;74.43;37.97;;;25.40;99.90;;;;;;7285477;19;20208;-75
2023/08/18 10:24:51;;;;;;;66.27;37.20;;;25.40;99.90;;;;;;7282854;19;20193;-76
2023/08/18 10:27:37;;;;;;;67.80;37.05;;;25.80;99.90;;;;;;7282478;19;20192;-76
2023/08/18 10:30:10;;;;;;;69.13;36.72;;;26.30;99.90;;;;;;7285098;19;20205;-77
2023/08/18 10:32:36;;;;;;;71.70;36.95;;;26.50;99.90;;;;;;7262340;19;20283;-77
2023/08/18 10:35:21;;;;;;;71.05;36.33;;;26.30;99.90;;;;;;7305758;19;20198;-78
2023/08/18 10:37:55;;;;;;;71.13;36.00;;;26.30;99.90;;;;;;7179816;19;2005021;-77
2023/08/18 10:40:23;;;;;;;57.80;33.08;;;26.20;99.90;;;;;;7282684;19;20580;-77
2023/08/18 10:42:56;;;;;;;54.67;30.85;;;26.40;99.90;;;;;;7282692;19;20209;-77
2023/08/18 10:45:27;;;;;;;49.88;27.85;;;26.90;99.90;;;;;;7284557;19;20185;-76
2023/08/18 10:47:54;;;;;;;46.08;26.98;;;27.30;99.90;;;;;;7281507;19;20203;-76
2023/08/18 10:50:20;;;;;;;46.72;28.00;;;27.80;99.90;;;;;;7279786;19;20197;-76
2023/08/18 10:52:46;;;;;;;42.75;26.85;;;28.10;99.90;;;;;;7281696;19;20196;-77
2023/08/18 10:55:11;;;;;;;40.53;24.83;;;29.10;99.90;;;;;;7284477;19;20193;-76
2023/08/18 10:57:37;;;;;;;34.17;22.50;;;29.50;99.90;;;;;;7283039;19;20192;-77
2023/08/18 11:00:11;;;;;;;36.28;23.60;;;30.90;99.90;;;;;;7304080;19;20295;-76
2023/08/18 11:02:40;;;;;;;37.60;23.65;;;31.50;99.90;;;;;;7259751;19;20277;-77
2023/08/18 11:05:06;;;;;;;36.58;23.85;;;31.80;99.90;;;;;;7282419;19;20189;-77
2023/08/18 11:07:33;;;;;;;39.55;25.35;;;31.80;99.90;;;;;;7303853;19;20711;-76
2023/08/18 11:09:59;;;;;;;41.40;26.65;;;31.80;99.90;;;;;;7283266;19;20200;-77
2023/08/18 11:12:25;;;;;;;40.25;25.02;;;32.00;99.90;;;;;;7281956;19;20249;-77
2023/08/18 11:14:53;;;;;;;35.17;23.40;;;32.40;99.90;;;;;;7282924;19;20220;-76
2023/08/18 11:17:19;;;;;;;38.13;25.10;;;32.90;99.90;;;;;;7282312;19;20193;-76
2023/08/18 11:19:45;;;;;;;37.95;24.17;;;32.90;99.90;;;;;;7282145;19;20986;-76
2023/08/18 11:22:11;;;;;;;39.70;23.63;;;32.70;99.90;;;;;;7283416;19;20199;-77
2023/08/18 11:24:37;;;;;;;35.95;24.85;;;33.30;99.90;;;;;;7279359;19;20195;-77
2023/08/18 11:27:03;;;;;;;34.58;23.13;;;33.60;99.90;;;;;;7302213;19;20188;-77
2023/08/18 11:29:29;;;;;;;36.53;23.60;;;33.80;99.90;;;;;;7280429;19;20212;-77
2023/08/18 11:31:55;;;;;;;36.00;23.17;;;34.10;99.90;;;;;;7280741;19;20181;-76
2023/08/18 11:34:21;;;;;;;32.20;20.85;;;34.40;99.90;;;;;;7280578;19;20204;-76
2023/08/18 11:36:47;;;;;;;33.75;22.92;;;34.60;99.90;;;;;;7281756;19;20298;-76
2023/08/18 11:39:13;;;;;;;31.33;21.45;;;35.10;99.90;;;;;;7278621;19;20264;-76
2023/08/18 11:41:41;;;;;;;33.65;23.02;;;35.60;99.90;;;;;;7280222;19;20197;-76
2023/08/18 11:44:08;;;;;;;33.40;23.48;;;36.30;99.90;;;;;;7282417;19;20727;-76
2023/08/18 11:46:35;;;;;;;33.72;23.98;;;36.20;99.90;;;;;;7298484;19;20961;-76
2023/08/18 11:49:03;;;;;;;36.40;23.88;;;36.30;99.90;;;;;;7302207;19;20665;-76
2023/08/18 11:51:30;;;;;;;34.78;24.23;;;37.20;99.90;;;;;;7281156;19;20279;-77
2023/08/18 11:53:56;;;;;;;31.15;22.40;;;37.30;99.90;;;;;;7280497;19;20192;-76
2023/08/18 11:56:26;;;;;;;33.58;23.35;;;37.50;99.90;;;;;;7280133;19;20195;-77
2023/08/18 11:58:51;;;;;;;33.53;23.08;;;37.40;99.80;;;;;;7279688;19;20200;-76
2023/08/18 12:01:17;;;;;;;34.17;23.85;;;37.50;99.50;;;;;;7279569;19;20189;-76
2023/08/18 12:03:54;;;;;;;32.80;21.90;;;36.70;99.90;;;;;;7279802;19;20200;-77
2023/08/18 12:06:25;;;;;;;31.20;20.40;;;36.60;99.90;;;;;;7279756;19;20192;-76
2023/08/18 12:08:51;;;;;;;31.60;21.02;;;36.30;99.90;;;;;;7277958;19;20205;-76
2023/08/18 12:11:17;;;;;;;30.95;21.25;;;36.20;99.90;;;;;;7279352;19;20201;-76
2023/08/18 12:13:42;;;;;;;34.03;23.65;;;35.50;99.90;;;;;;7278954;19;20225;-76
2023/08/18 12:16:08;;;;;;;39.35;24.67;;;34.60;99.90;;;;;;7278636;19;20672;-77
2023/08/18 12:18:34;;;;;;;34.20;23.23;;;34.10;99.90;;;;;;7300051;19;20181;-77
2023/08/18 12:21:00;;;;;;;35.33;23.80;;;33.70;99.90;;;;;;7295814;19;20205;-78
2023/08/18 12:23:26;;;;;;;30.73;21.10;;;34.60;99.90;;;;;;7276204;19;20197;-77